Time;durP1;ratioP1;P1;durP2;ratioP2;P2;SDS_P1;SDS_P2;PMS_P1;PMS_P2;Temp;Humidity;BMP_temperature;BMP_pressure;BME280_temperature;BME280_humidity;BME280_pressure;Samples;Min_cycle;Max_cycle;Signal;HPM_P1;HPM_P2
2022/03/28 00:01:19;;;;;;;0.88;0.88;;;;;;;-8.50;49.60;98817.72;4882001;29;20052;-83
2022/03/28 00:03:46;;;;;;;1.25;1.20;;;;;;;-8.62;49.93;98806.47;4883458;29;20059;-84
2022/03/28 00:06:15;;;;;;;1.30;1.20;;;;;;;-8.68;50.05;98801.78;4883094;29;20132;-84
2022/03/28 00:08:42;;;;;;;1.00;1.00;;;;;;;-8.68;49.91;98799.16;4899564;29;20049;-82
2022/03/28 00:11:10;;;;;;;1.30;1.20;;;;;;;-8.61;49.72;98808.13;4902960;29;20033;-83
2022/03/28 00:13:37;;;;;;;1.00;1.00;;;;;;;-8.61;49.54;98808.13;4903236;29;20037;-83
2022/03/28 00:16:05;;;;;;;0.95;0.95;;;;;;;-8.72;49.66;98797.75;4901149;29;20112;-83
2022/03/28 00:18:33;;;;;;;0.90;0.90;;;;;;;-8.77;49.68;98805.97;4883301;29;20143;-83
2022/03/28 00:21:00;;;;;;;1.10;1.10;;;;;;;-8.79;49.57;98802.63;4885420;29;20144;-83
2022/03/28 00:23:28;;;;;;;1.15;1.15;;;;;;;-8.86;49.92;98811.97;4883227;29;20053;-82
2022/03/28 00:25:55;;;;;;;1.00;1.00;;;;;;;-8.90;49.78;98807.13;4853601;29;20084;-82
2022/03/28 00:28:22;;;;;;;1.10;1.10;;;;;;;-8.84;49.86;98811.84;4880513;29;20053;-82
2022/03/28 00:30:54;;;;;;;1.10;1.10;;;;;;;-8.95;49.82;98804.88;4880896;29;20508;-84
2022/03/28 00:33:21;;;;;;;1.50;1.40;;;;;;;-8.91;49.92;98818.50;4880138;29;20500;-83
2022/03/28 00:35:50;;;;;;;1.17;1.15;;;;;;;-8.90;49.68;98805.31;4863884;29;20100;-82
2022/03/28 00:38:17;;;;;;;1.10;1.10;;;;;;;-8.88;49.56;98813.88;4879964;29;20057;-83
2022/03/28 00:40:45;;;;;;;1.10;1.10;;;;;;;-8.88;49.37;98813.06;4880281;29;20052;-83
2022/03/28 00:43:12;;;;;;;0.90;0.90;;;;;;;-8.92;49.43;98788.09;4863606;29;20469;-83
2022/03/28 00:45:41;;;;;;;1.00;1.00;;;;;;;-8.91;49.61;98808.06;4870154;29;20052;-83
2022/03/28 00:48:09;;;;;;;1.00;1.00;;;;;;;-8.93;49.37;98812.59;4888990;29;20147;-83
2022/03/28 00:50:37;;;;;;;1.20;1.20;;;;;;;-9.00;49.42;98809.66;4886402;29;20397;-83
2022/03/28 00:53:06;;;;;;;1.10;1.10;;;;;;;-9.04;49.83;98795.16;4879993;29;20053;-83
2022/03/28 00:55:33;;;;;;;1.30;1.20;;;;;;;-9.12;49.92;98805.41;4863148;29;20427;-83
2022/03/28 00:58:01;;;;;;;1.02;1.02;;;;;;;-9.19;50.12;98800.69;4880947;29;20110;-83
2022/03/28 01:00:28;;;;;;;1.15;1.13;;;;;;;-9.14;50.01;98794.25;4880121;29;20470;-82
2022/03/28 01:02:59;;;;;;;1.05;1.05;;;;;;;-9.14;50.14;98800.28;4863418;29;20052;-84
2022/03/28 01:05:27;;;;;;;1.00;1.00;;;;;;;-9.14;50.10;98792.44;4880140;29;20052;-83
2022/03/28 01:07:55;;;;;;;1.33;1.23;;;;;;;-9.08;50.02;98788.53;4879734;29;20053;-83
2022/03/28 01:10:23;;;;;;;1.00;1.00;;;;;;;-9.09;50.02;98786.84;4861841;29;20069;-83
2022/03/28 01:12:51;;;;;;;1.05;1.05;;;;;;;-9.06;50.05;98797.91;4879467;29;20423;-83
2022/03/28 01:15:19;;;;;;;1.10;1.10;;;;;;;-9.10;50.01;98803.50;4862783;29;20057;-83
2022/03/28 01:20:33;;;;;;;1.10;1.10;;;;;;;-9.21;50.70;98781.69;4869433;29;20472;-83
2022/03/28 01:23:02;;;;;;;1.15;1.15;;;;;;;-9.22;50.85;98782.63;4879135;29;20072;-83
2022/03/28 01:25:29;;;;;;;1.25;1.20;;;;;;;-9.28;51.02;98785.75;4879479;29;20569;-83
2022/03/28 01:27:58;;;;;;;1.25;1.20;;;;;;;-9.32;51.26;98786.94;4879428;29;20053;-83
2022/03/28 01:30:31;;;;;;;1.40;1.30;;;;;;;-9.29;51.42;98797.16;4879655;29;20045;-83
2022/03/28 01:33:00;;;;;;;1.00;1.00;;;;;;;-9.22;51.69;98798.31;4879187;29;20049;-83
2022/03/28 01:35:36;;;;;;;1.15;1.15;;;;;;;-9.23;51.59;98794.03;4878960;29;20662;-82
2022/03/28 01:38:05;;;;;;;1.35;1.25;;;;;;;-9.24;51.49;98795.00;4888892;29;20091;-83
2022/03/28 01:40:58;;;;;;;1.35;1.25;;;;;;;-9.21;51.61;98786.91;4865416;29;20073;-82
2022/03/28 01:43:25;;;;;;;1.10;1.10;;;;;;;-9.22;51.21;98774.78;4862426;29;20049;-83
2022/03/28 01:45:53;;;;;;;1.30;1.20;;;;;;;-9.22;51.32;98766.94;4861707;29;20084;-82
2022/03/28 01:48:21;;;;;;;1.35;1.25;;;;;;;-9.21;51.58;98770.41;4878547;29;20045;-83
2022/03/28 01:50:48;;;;;;;1.30;1.20;;;;;;;-9.20;51.73;98770.25;4879117;29;20056;-83
2022/03/28 01:53:15;;;;;;;1.40;1.30;;;;;;;-9.15;51.62;98759.44;4879254;29;20092;-83
2022/03/28 01:55:43;;;;;;;1.10;1.10;;;;;;;-9.17;51.74;98767.38;4879074;29;20406;-83
2022/03/28 01:58:11;;;;;;;1.20;1.20;;;;;;;-9.20;52.06;98764.22;4862099;29;20057;-83
2022/03/28 02:00:38;;;;;;;1.00;1.00;;;;;;;-9.22;52.39;98764.31;4878816;29;20417;-83
2022/03/28 02:03:05;;;;;;;1.30;1.20;;;;;;;-9.20;51.95;98761.59;4880123;29;20049;-83
2022/03/28 02:05:32;;;;;;;1.17;1.17;;;;;;;-9.18;51.73;98765.75;4882641;29;20079;-83
2022/03/28 02:07:59;;;;;;;1.30;1.20;;;;;;;-9.16;51.80;98763.84;4880446;29;20589;-82
2022/03/28 02:10:27;;;;;;;1.02;1.02;;;;;;;-9.21;51.65;98752.94;4863402;29;20442;-83
2022/03/28 02:12:55;;;;;;;1.27;1.20;;;;;;;-9.14;51.50;98768.09;4879102;29;20053;-84
2022/03/28 02:15:22;;;;;;;1.13;1.13;;;;;;;-9.22;51.84;98780.00;4879025;29;20564;-83
2022/03/28 02:17:50;;;;;;;1.10;1.10;;;;;;;-9.14;51.51;98787.22;4882707;29;20044;-83
2022/03/28 02:20:22;;;;;;;1.00;1.00;;;;;;;-9.18;51.50;98770.97;4878430;29;20473;-82
2022/03/28 02:22:49;;;;;;;1.10;1.10;;;;;;;-9.17;51.39;98767.38;4863758;29;20424;-82
2022/03/28 02:25:16;;;;;;;1.10;1.10;;;;;;;-9.10;51.37;98774.75;4881861;29;20093;-83
2022/03/28 02:27:44;;;;;;;0.90;0.90;;;;;;;-9.08;51.43;98775.47;4882106;29;20116;-83
2022/03/28 02:30:12;;;;;;;1.08;1.08;;;;;;;-9.09;51.65;98789.47;4882222;29;20492;-82
2022/03/28 02:32:39;;;;;;;1.02;1.02;;;;;;;-9.16;51.43;98779.53;4882496;29;20061;-82
2022/03/28 02:35:08;;;;;;;1.10;1.10;;;;;;;-9.14;51.56;98770.72;4881977;29;20132;-83
2022/03/28 02:37:35;;;;;;;1.38;1.27;;;;;;;-9.16;51.90;98773.47;4881648;29;20052;-83
2022/03/28 02:40:04;;;;;;;1.00;1.00;;;;;;;-9.21;51.56;98766.00;4850016;29;20045;-83
2022/03/28 02:42:31;;;;;;;1.38;1.27;;;;;;;-9.26;51.86;98768.16;4881825;29;20155;-82
2022/03/28 02:44:58;;;;;;;1.08;1.08;;;;;;;-9.30;52.01;98761.50;4881454;29;20049;-83
2022/03/28 02:47:29;;;;;;;0.90;0.90;;;;;;;-9.39;52.02;98755.25;4881726;29;20057;-82
2022/03/28 02:50:01;;;;;;;1.38;1.27;;;;;;;-9.42;52.81;98752.91;4881812;29;20049;-83
2022/03/28 02:52:29;;;;;;;1.30;1.20;;;;;;;-9.40;52.49;98750.16;4881764;29;20114;-82
2022/03/28 02:54:56;;;;;;;1.27;1.20;;;;;;;-9.47;52.70;98751.59;4865918;29;20584;-84
2022/03/28 02:57:23;;;;;;;1.00;1.00;;;;;;;-9.51;52.88;98744.97;4884932;29;20583;-84
2022/03/28 02:59:50;;;;;;;1.00;1.00;;;;;;;-9.50;52.61;98731.75;4886744;29;20121;-83
2022/03/28 03:02:17;;;;;;;1.35;1.25;;;;;;;-9.50;52.71;98731.75;4866592;29;20064;-84
2022/03/28 03:04:44;;;;;;;1.40;1.30;;;;;;;-9.41;52.54;98727.59;4866882;29;20049;-83
2022/03/28 03:07:11;;;;;;;1.10;1.10;;;;;;;-9.43;52.57;98737.34;4882031;29;20045;-84
2022/03/28 03:09:39;;;;;;;1.13;1.13;;;;;;;-9.46;52.84;98729.75;4882688;29;20109;-83
2022/03/28 03:12:07;;;;;;;1.20;1.20;;;;;;;-9.54;53.03;98721.69;4881959;29;20049;-84
2022/03/28 03:14:38;;;;;;;1.10;1.10;;;;;;;-9.60;53.42;98726.44;4881561;29;20064;-83
2022/03/28 03:17:05;;;;;;;0.90;0.90;;;;;;;-9.65;53.70;98725.16;4848349;29;20053;-83
2022/03/28 03:19:32;;;;;;;1.23;1.20;;;;;;;-9.63;54.05;98720.66;4881493;29;20571;-83
2022/03/28 03:21:59;;;;;;;1.13;1.13;;;;;;;-9.57;53.67;98727.97;4865800;29;20053;-83
2022/03/28 03:24:27;;;;;;;1.00;1.00;;;;;;;-9.48;53.52;98716.78;4868800;29;20079;-83
2022/03/28 03:26:54;;;;;;;1.30;1.25;;;;;;;-9.44;53.43;98720.84;4867959;29;20057;-82
2022/03/28 03:29:23;;;;;;;1.05;1.05;;;;;;;-9.36;53.33;98714.16;4883151;29;20101;-83
2022/03/28 03:31:50;;;;;;;1.30;1.20;;;;;;;-9.33;53.18;98712.09;4836642;29;20108;-83
2022/03/28 03:34:18;;;;;;;1.00;1.00;;;;;;;-9.26;53.00;98715.88;4864453;29;20136;-83
2022/03/28 03:36:45;;;;;;;1.10;1.10;;;;;;;-9.25;52.99;98716.72;4881197;29;20512;-83
2022/03/28 03:39:12;;;;;;;1.13;1.13;;;;;;;-9.22;52.96;98701.59;4880752;29;20362;-82
2022/03/28 03:41:41;;;;;;;1.20;1.20;;;;;;;-9.24;52.99;98703.53;4865486;29;20477;-82
2022/03/28 03:44:08;;;;;;;1.13;1.13;;;;;;;-9.30;52.81;98697.97;4823978;29;20082;-83
2022/03/28 03:46:35;;;;;;;1.00;1.00;;;;;;;-9.26;52.93;98694.16;4809167;29;20089;-82
2022/03/28 03:49:06;;;;;;;1.40;1.30;;;;;;;-9.29;52.74;98694.38;4823554;29;20060;-84
2022/03/28 03:51:33;;;;;;;1.40;1.30;;;;;;;-9.27;52.91;98697.69;4823207;29;20114;-83
2022/03/28 03:54:01;;;;;;;1.30;1.20;;;;;;;-9.22;52.80;98687.69;4823023;29;20447;-82
2022/03/28 03:56:29;;;;;;;1.40;1.30;;;;;;;-9.14;52.12;98698.34;4823622;29;20058;-84
2022/03/28 03:58:56;;;;;;;1.35;1.25;;;;;;;-9.09;52.46;98698.78;4823481;29;20081;-85
2022/03/28 04:01:26;;;;;;;1.10;1.10;;;;;;;-9.10;52.45;98694.53;4823560;29;20119;-85
2022/03/28 04:03:53;;;;;;;1.40;1.30;;;;;;;-9.06;52.12;98690.72;4824740;29;20081;-83
2022/03/28 04:06:20;;;;;;;1.42;1.33;;;;;;;-8.97;52.09;98694.31;4793741;29;20070;-82
2022/03/28 04:08:48;;;;;;;1.10;1.10;;;;;;;-8.90;52.30;98695.47;4810576;29;20561;-83
2022/03/28 04:11:16;;;;;;;1.40;1.30;;;;;;;-8.87;52.28;98692.59;4826448;29;20055;-83
2022/03/28 04:13:44;;;;;;;1.27;1.17;;;;;;;-9.01;52.38;98672.84;4822954;29;20538;-83
2022/03/28 04:16:11;;;;;;;1.35;1.25;;;;;;;-8.87;52.00;98689.16;4872131;29;20049;-83
2022/03/28 04:18:38;;;;;;;1.30;1.20;;;;;;;-8.84;51.86;98692.34;4880019;29;20089;-82
2022/03/28 04:21:05;;;;;;;1.45;1.35;;;;;;;-8.62;51.94;98693.16;4880202;29;20081;-83
2022/03/28 04:23:32;;;;;;;1.30;1.20;;;;;;;-8.59;51.89;98701.56;4880747;29;20053;-84
2022/03/28 04:25:59;;;;;;;1.17;1.17;;;;;;;-8.55;51.67;98689.88;4880569;29;20044;-85
2022/03/28 04:28:26;;;;;;;1.35;1.25;;;;;;;-8.53;51.21;98685.34;4880287;29;20081;-83
2022/03/28 04:30:54;;;;;;;1.10;1.10;;;;;;;-8.57;51.29;98670.84;4881291;29;20053;-83
2022/03/28 04:33:22;;;;;;;1.30;1.20;;;;;;;-8.47;51.50;98675.31;4864234;29;20080;-83
2022/03/28 04:35:50;;;;;;;1.30;1.20;;;;;;;-8.47;51.49;98675.31;4862626;29;20049;-83
2022/03/28 04:38:17;;;;;;;1.20;1.17;;;;;;;-8.35;51.10;98684.69;4880209;29;20056;-83
2022/03/28 04:40:45;;;;;;;1.30;1.20;;;;;;;-8.37;51.36;98676.97;4879975;29;20477;-83
2022/03/28 04:43:12;;;;;;;1.10;1.10;;;;;;;-8.31;51.19;98678.22;4863252;29;20080;-83
2022/03/28 04:45:39;;;;;;;1.10;1.10;;;;;;;-8.25;51.12;98679.47;4881142;29;20469;-83
2022/03/28 04:48:06;;;;;;;1.40;1.30;;;;;;;-8.20;50.79;98674.66;4894091;29;20064;-83
2022/03/28 04:50:34;;;;;;;1.33;1.23;;;;;;;-8.20;50.90;98661.56;4883936;29;20048;-84
2022/03/28 04:53:01;;;;;;;1.10;1.10;;;;;;;-8.13;50.77;98662.69;4887176;29;20048;-85
2022/03/28 04:55:31;;;;;;;1.30;1.20;;;;;;;-8.06;50.48;98663.81;4887266;29;20049;-84
2022/03/28 04:57:58;;;;;;;1.10;1.10;;;;;;;-7.96;50.27;98653.38;4867703;29;20093;-84
2022/03/28 05:00:25;;;;;;;1.17;1.17;;;;;;;-7.85;50.49;98640.97;4880315;29;20516;-84
2022/03/28 05:02:54;;;;;;;1.23;1.17;;;;;;;-7.74;50.12;98649.69;4862164;29;20050;-83
2022/03/28 05:05:21;;;;;;;1.10;1.10;;;;;;;-7.72;49.75;98629.38;4862171;29;20140;-84
2022/03/28 05:07:48;;;;;;;1.15;1.15;;;;;;;-7.72;49.26;98597.94;4849487;29;20072;-82
2022/03/28 05:10:16;;;;;;;1.27;1.20;;;;;;;-7.39;49.50;98620.28;4866501;29;20184;-84
2022/03/28 05:12:43;;;;;;;1.10;1.10;;;;;;;-7.35;48.99;98621.63;4862278;29;20050;-84
2022/03/28 05:15:10;;;;;;;0.85;0.85;;;;;;;-7.25;49.08;98625.06;4831927;29;20049;-84
2022/03/28 05:17:37;;;;;;;1.27;1.20;;;;;;;-7.19;48.21;98613.19;4832363;29;20102;-84
2022/03/28 05:20:05;;;;;;;1.10;1.10;;;;;;;-7.27;48.17;98608.66;4865724;29;20060;-84
2022/03/28 05:22:32;;;;;;;1.30;1.20;;;;;;;-7.25;48.44;98600.66;4866981;29;20351;-83
2022/03/28 05:24:59;;;;;;;1.40;1.30;;;;;;;-7.11;48.67;98602.03;4864850;29;20109;-83
2022/03/28 05:27:27;;;;;;;1.02;1.02;;;;;;;-7.06;48.35;98595.38;4864986;29;20057;-85
2022/03/28 05:29:54;;;;;;;1.10;1.10;;;;;;;-7.00;47.43;98592.16;4844490;29;20520;-84
2022/03/28 05:32:21;;;;;;;1.05;1.05;;;;;;;-7.08;47.35;98578.94;4845798;29;20057;-84
2022/03/28 05:34:48;;;;;;;1.30;1.20;;;;;;;-7.21;47.97;98568.75;4863054;29;20580;-83
2022/03/28 05:37:16;;;;;;;1.10;1.10;;;;;;;-7.06;47.93;98563.88;4861604;29;20122;-82
2022/03/28 05:39:45;;;;;;;1.10;1.10;;;;;;;-7.01;46.95;98556.41;4872259;29;20060;-83
2022/03/28 05:42:12;;;;;;;1.05;1.05;;;;;;;-6.97;47.14;98549.06;4864912;29;20104;-83
2022/03/28 05:44:41;;;;;;;1.30;1.20;;;;;;;-6.94;46.74;98534.84;4881351;29;20114;-83
2022/03/28 05:47:09;;;;;;;1.20;1.15;;;;;;;-6.79;46.83;98533.38;4879833;29;20053;-83
2022/03/28 05:49:36;;;;;;;1.08;1.08;;;;;;;-6.75;46.78;98524.25;4873596;29;20127;-84
2022/03/28 05:52:04;;;;;;;1.08;1.08;;;;;;;-6.60;46.98;98532.47;4878948;29;20420;-83
2022/03/28 05:54:31;;;;;;;1.10;1.10;;;;;;;-6.50;46.98;98517.50;4875530;29;20144;-84
2022/03/28 05:56:58;;;;;;;1.30;1.20;;;;;;;-6.39;45.79;98524.31;4864288;29;20053;-84
2022/03/28 05:59:25;;;;;;;1.00;1.00;;;;;;;-6.48;45.87;98510.28;4846838;29;20078;-89
2022/03/28 06:01:53;;;;;;;0.93;0.93;;;;;;;-6.34;46.10;98511.56;4868001;29;20080;-88
2022/03/28 06:04:20;;;;;;;1.00;1.00;;;;;;;-6.24;46.27;98501.00;4907123;29;20056;-87
2022/03/28 06:06:48;;;;;;;1.00;1.00;;;;;;;-6.07;45.88;98512.50;4896963;29;20057;-86
2022/03/28 06:09:15;;;;;;;1.10;1.10;;;;;;;-6.02;45.48;98494.47;4884946;29;20508;-85
2022/03/28 06:11:47;;;;;;;0.80;0.80;;;;;;;-5.98;44.87;98495.81;4852909;29;20512;-81
2022/03/28 06:14:14;;;;;;;0.70;0.70;;;;;;;-6.05;44.51;98497.38;4886226;29;20055;-85
2022/03/28 06:16:41;;;;;;;0.80;0.80;;;;;;;-6.05;44.67;98484.25;4890821;29;20494;-84
2022/03/28 06:19:09;;;;;;;0.88;0.88;;;;;;;-5.92;44.85;98479.41;4867777;29;20049;-87
2022/03/28 06:21:36;;;;;;;1.00;1.00;;;;;;;-5.81;44.88;98457.31;4546849;29;10000504;-81
2022/03/28 06:24:06;;;;;;;1.00;1.00;;;;;;;-5.67;44.95;98447.06;4881163;29;20068;-82
2022/03/28 06:26:34;;;;;;;1.00;1.00;;;;;;;-5.67;44.32;98443.63;4873955;29;20053;-84
2022/03/28 06:29:01;;;;;;;0.65;0.65;;;;;;;-5.78;44.31;98415.75;4843581;29;20045;-83
2022/03/28 06:31:28;;;;;;;1.00;1.00;;;;;;;-5.74;44.41;98417.09;4874332;29;20398;-83
2022/03/28 06:34:01;;;;;;;0.95;0.95;;;;;;;-5.73;44.16;98405.59;4860033;29;20109;-83
2022/03/28 06:36:30;;;;;;;1.00;1.00;;;;;;;-5.72;44.15;98420.41;4874067;29;20577;-81
2022/03/28 06:38:58;;;;;;;0.88;0.88;;;;;;;-5.58;44.10;98405.03;4857875;29;20507;-81
2022/03/28 06:41:25;;;;;;;0.90;0.90;;;;;;;-5.55;43.97;98405.53;4880020;29;20067;-80
2022/03/28 06:43:52;;;;;;;0.77;0.77;;;;;;;-5.43;43.41;98394.75;4866122;29;20045;-81
2022/03/28 07:14:16;;;;;;;0.80;0.80;;;;;;;-4.09;39.63;98307.72;5016242;28;20379;-90
2022/03/28 07:16:44;;;;;;;0.80;0.80;;;;;;;-4.18;39.88;98298.97;5012380;28;20054;-88
2022/03/28 07:19:11;;;;;;;0.70;0.70;;;;;;;-4.34;40.02;98281.41;5014540;28;20467;-88
2022/03/28 07:21:39;;;;;;;0.77;0.77;;;;;;;-4.37;39.62;98272.03;5008895;28;20057;-88
2022/03/28 07:24:06;;;;;;;0.70;0.70;;;;;;;-4.45;39.92;98277.31;5002927;28;20105;-88
2022/03/28 07:26:33;;;;;;;0.80;0.80;;;;;;;-4.61;39.76;98264.13;4959024;28;20551;-88
2022/03/28 07:29:02;;;;;;;0.80;0.80;;;;;;;-4.64;39.90;98261.84;5003122;28;20046;-86
2022/03/28 07:31:36;;;;;;;0.80;0.80;;;;;;;-4.51;39.23;98240.25;4995208;28;20141;-88
2022/03/28 07:36:49;;;;;;;0.70;0.70;;;;;;;-4.69;39.60;98235.19;4975624;28;20126;-87
2022/03/28 07:39:16;;;;;;;0.85;0.85;;;;;;;-4.74;39.06;98225.16;4981144;28;20137;-88
2022/03/28 07:41:43;;;;;;;0.82;0.82;;;;;;;-4.57;39.47;98220.69;4968362;28;20070;-90
2022/03/28 07:44:11;;;;;;;0.85;0.85;;;;;;;-4.50;39.45;98213.78;4968731;28;20056;-87
2022/03/28 07:46:44;;;;;;;0.70;0.70;;;;;;;-4.45;39.89;98210.63;4949059;29;20106;-86
2022/03/28 07:49:17;;;;;;;0.67;0.67;;;;;;;-4.53;40.04;98189.56;4972362;28;20052;-90
2022/03/28 07:52:24;;;;;;;0.70;0.70;;;;;;;-4.51;40.25;98188.41;4954880;28;20044;-90
2022/03/28 07:54:52;;;;;;;0.73;0.73;;;;;;;-4.50;40.42;98168.19;4952009;29;20060;-89
2022/03/28 07:57:19;;;;;;;0.70;0.70;;;;;;;-4.43;40.58;98177.88;4945274;29;20090;-89
2022/03/28 07:59:47;;;;;;;0.80;0.80;;;;;;;-4.31;40.88;98180.94;4929456;29;20048;-88
2022/03/28 08:02:40;;;;;;;0.90;0.90;;;;;;;-4.46;41.13;98187.91;4926165;29;20063;-87
2022/03/28 08:05:09;;;;;;;0.70;0.70;;;;;;;-4.62;41.67;98155.34;4928459;29;20063;-87
2022/03/28 08:07:38;;;;;;;0.80;0.80;;;;;;;-4.53;43.40;98190.41;4914123;29;20056;-89
2022/03/28 08:10:06;;;;;;;0.75;0.75;;;;;;;-4.49;44.13;98141.66;4927864;29;20048;-89
2022/03/28 08:12:36;;;;;;;0.73;0.73;;;;;;;-4.63;44.99;98142.38;4932166;29;20052;-92
2022/03/28 08:15:06;;;;;;;0.75;0.75;;;;;;;-4.71;45.16;98124.78;4925776;29;20052;-86
2022/03/28 08:17:37;;;;;;;0.80;0.80;;;;;;;-4.59;45.36;98115.50;4573484;29;9999814;-92
2022/03/28 08:20:09;;;;;;;0.82;0.82;;;;;;;-4.53;45.70;98110.56;4916158;29;20057;-92
2022/03/28 08:22:44;;;;;;;0.75;0.75;;;;;;;-4.37;45.38;98098.16;4910334;29;20169;-87
2022/03/28 08:25:14;;;;;;;0.68;0.68;;;;;;;-4.37;45.88;98092.06;4898895;29;20176;-85
2022/03/28 08:27:47;;;;;;;0.80;0.80;;;;;;;-4.32;46.26;98088.94;4896757;29;20076;-87
2022/03/28 08:30:17;;;;;;;0.68;0.68;;;;;;;-4.32;47.62;98095.00;4898257;29;20057;-90
2022/03/28 08:32:47;;;;;;;0.73;0.73;;;;;;;-4.59;49.63;98077.84;4905468;29;20063;-90
2022/03/28 08:35:15;;;;;;;0.77;0.77;;;;;;;-4.90;51.56;98077.78;4931132;29;20048;-91
2022/03/28 08:37:43;;;;;;;0.70;0.70;;;;;;;-5.02;52.23;98051.81;4933327;29;20088;-92
2022/03/28 08:40:15;;;;;;;0.57;0.57;;;;;;;-5.06;53.25;98049.69;4913641;29;20688;-88
2022/03/28 08:42:43;;;;;;;0.70;0.70;;;;;;;-5.08;53.80;98033.25;4926747;29;20052;-88
2022/03/28 08:45:14;;;;;;;0.80;0.80;;;;;;;-5.02;53.91;98022.03;4930319;29;20080;-91
2022/03/28 08:47:47;;;;;;;0.80;0.80;;;;;;;-4.90;54.06;98022.50;4928967;28;20095;-86
2022/03/28 08:50:35;;;;;;;0.70;0.70;;;;;;;-5.00;54.74;97991.13;4941598;29;20032;-92
2022/03/28 08:53:04;;;;;;;0.95;0.95;;;;;;;-4.91;55.14;97982.22;4951240;29;20052;-89
2022/03/28 08:55:32;;;;;;;0.70;0.70;;;;;;;-5.02;56.05;97974.69;4942260;28;20038;-92
2022/03/28 08:58:00;;;;;;;1.00;1.00;;;;;;;-5.19;57.05;97968.69;4955169;28;20063;-89
2022/03/28 09:00:27;;;;;;;0.90;0.90;;;;;;;-5.28;58.08;97944.19;4951281;29;20097;-89
2022/03/28 09:02:57;;;;;;;0.75;0.75;;;;;;;-5.18;58.96;97949.25;4938147;29;20052;-86
2022/03/28 09:05:38;;;;;;;0.80;0.80;;;;;;;-5.27;60.30;97921.34;4952311;29;20048;-89
2022/03/28 09:08:07;;;;;;;0.88;0.88;;;;;;;-5.47;61.75;97942.78;4950399;29;20059;-89
2022/03/28 09:10:47;;;;;;;0.70;0.70;;;;;;;-5.45;63.42;97918.94;4978811;28;20146;-89
2022/03/28 09:13:18;;;;;;;0.82;0.82;;;;;;;-5.49;64.92;97978.13;4951618;29;20062;-90
2022/03/28 09:15:49;;;;;;;0.82;0.82;;;;;;;-5.57;66.15;97928.16;4949521;29;20128;-90
2022/03/28 09:18:44;;;;;;;0.90;0.90;;;;;;;-5.61;67.70;97917.19;4953608;29;20051;-91
2022/03/28 09:21:16;;;;;;;0.70;0.70;;;;;;;-5.67;68.54;97904.72;4949260;29;20075;-89
2022/03/28 09:23:53;;;;;;;0.75;0.75;;;;;;;-5.53;69.04;97890.03;4935638;29;20119;-89
2022/03/28 09:26:27;;;;;;;;;;;;;;;-5.47;68.87;97873.56;4972842;28;20039;-92
2022/03/28 09:29:08;;;;;;;1.00;1.00;;;;;;;-5.71;69.28;97867.41;4971824;28;19926;-89
2022/03/28 09:31:46;;;;;;;0.90;0.90;;;;;;;-5.67;69.84;97847.69;4959632;29;20110;-88
2022/03/28 09:34:18;;;;;;;0.85;0.85;;;;;;;-5.71;70.46;97870.03;4958271;28;20536;-90
2022/03/28 09:36:56;;;;;;;0.80;0.80;;;;;;;-5.60;71.58;97860.16;4959701;29;20055;-88
2022/03/28 09:39:32;;;;;;;1.05;1.05;;;;;;;-5.58;72.22;97845.84;4963426;29;20447;-88
2022/03/28 09:42:08;;;;;;;0.82;0.82;;;;;;;-5.58;72.54;97830.06;4968949;28;20075;-87
2022/03/28 09:44:45;;;;;;;0.90;0.90;;;;;;;-5.46;72.99;97791.09;4960473;29;20048;-88
2022/03/28 09:47:25;;;;;;;1.10;1.10;;;;;;;-5.48;72.59;97817.53;4959726;28;20047;-88
2022/03/28 09:49:59;;;;;;;0.90;0.90;;;;;;;-5.46;72.58;97810.31;4954602;29;20059;-87
2022/03/28 09:52:32;;;;;;;1.00;1.00;;;;;;;-5.41;72.85;97799.28;4921304;29;20119;-86
2022/03/28 09:55:03;;;;;;;0.90;0.90;;;;;;;-5.31;72.94;97802.50;4956896;28;20054;-85
2022/03/28 09:57:32;;;;;;;0.60;0.60;;;;;;;-5.13;72.48;97796.16;4929022;29;20388;-87
2022/03/28 10:00:14;;;;;;;0.80;0.80;;;;;;;-5.20;72.53;97813.63;4945715;29;20440;-88
2022/03/28 10:02:42;;;;;;;0.90;0.90;;;;;;;-5.05;72.47;97789.03;4939476;29;20094;-87
2022/03/28 10:05:10;;;;;;;0.75;0.75;;;;;;;-5.05;72.52;97793.47;4943761;29;20044;-87
2022/03/28 10:07:37;;;;;;;0.80;0.80;;;;;;;-5.05;72.42;97793.47;4925458;29;20055;-87
2022/03/28 10:10:06;;;;;;;0.60;0.60;;;;;;;-5.08;72.93;97778.03;4945783;29;20127;-87
2022/03/28 10:12:35;;;;;;;0.68;0.68;;;;;;;-5.18;73.54;97770.38;4946207;29;20063;-87
2022/03/28 10:15:16;;;;;;;0.70;0.70;;;;;;;-5.14;73.50;97784.84;4928727;29;20053;-88
2022/03/28 10:17:44;;;;;;;0.70;0.70;;;;;;;-5.17;74.25;97760.66;4942581;29;20052;-87
2022/03/28 10:20:19;;;;;;;0.70;0.70;;;;;;;-5.19;74.61;97750.34;4932833;29;20032;-90
2022/03/28 10:23:04;;;;;;;0.80;0.80;;;;;;;-5.18;75.43;97743.25;4948372;28;20047;-86
2022/03/28 10:25:36;;;;;;;0.70;0.70;;;;;;;-4.92;75.92;97733.19;4939384;29;20050;-89
2022/03/28 10:28:19;;;;;;;1.00;1.00;;;;;;;-4.83;75.71;97737.38;4950365;29;20714;-87
2022/03/28 10:30:48;;;;;;;0.80;0.80;;;;;;;-4.76;75.42;97729.59;4939861;29;20055;-86
2022/03/28 10:33:28;;;;;;;0.90;0.90;;;;;;;-4.83;74.31;97718.97;4945211;29;20058;-87
2022/03/28 10:36:05;;;;;;;0.70;0.70;;;;;;;-4.81;74.63;97705.59;4959834;28;20059;-92
2022/03/28 10:39:18;;;;;;;0.70;0.70;;;;;;;-4.72;74.39;97701.09;4956412;29;20126;-89
2022/03/28 10:41:45;;;;;;;0.90;0.90;;;;;;;-4.78;74.09;97681.59;4972063;28;20123;-89
2022/03/28 10:44:17;;;;;;;0.70;0.70;;;;;;;-4.76;74.65;97662.97;4954207;29;20042;-91
2022/03/28 10:46:44;;;;;;;0.75;0.75;;;;;;;-4.66;74.63;97661.72;4979667;28;20063;-85
2022/03/28 10:49:11;;;;;;;0.85;0.85;;;;;;;-4.55;74.52;97657.81;4954719;29;20070;-92
2022/03/28 10:51:48;;;;;;;0.80;0.80;;;;;;;-4.46;74.28;97648.81;4956231;28;20027;-90
2022/03/28 10:54:17;;;;;;;0.80;0.80;;;;;;;-4.46;73.99;97617.19;4947297;29;20044;-88
2022/03/28 10:56:45;;;;;;;0.80;0.80;;;;;;;-4.55;73.88;97626.22;4945193;29;20043;-87
2022/03/28 10:59:40;;;;;;;0.82;0.82;;;;;;;-4.63;74.53;97639.47;4937678;29;20062;-89
2022/03/28 11:02:30;;;;;;;0.68;0.68;;;;;;;-4.80;74.98;97634.38;4968156;28;20047;-87
2022/03/28 11:05:09;;;;;;;0.70;0.70;;;;;;;-4.99;75.39;97634.88;4973284;28;20052;-89
2022/03/28 11:07:40;;;;;;;0.60;0.60;;;;;;;-4.94;75.90;97627.25;4966645;28;20051;-88
2022/03/28 11:10:13;;;;;;;0.80;0.80;;;;;;;-4.81;76.00;97616.94;4925121;29;20060;-88
2022/03/28 11:12:44;;;;;;;0.80;0.80;;;;;;;-4.76;76.34;97611.16;4933485;29;20155;-84
2022/03/28 11:15:19;;;;;;;0.70;0.70;;;;;;;-4.71;77.03;97602.69;4945434;29;20060;-86
2022/03/28 11:18:24;;;;;;;0.68;0.68;;;;;;;-4.63;76.66;97587.63;4936844;29;20060;-85
2022/03/28 11:20:52;;;;;;;0.73;0.73;;;;;;;-4.64;76.88;97598.34;4907271;29;20372;-85
2022/03/28 11:23:20;;;;;;;0.60;0.60;;;;;;;-4.54;76.93;97587.53;4908404;29;20075;-84
2022/03/28 11:25:51;;;;;;;0.70;0.70;;;;;;;-4.50;76.33;97576.44;4922087;29;20484;-85
2022/03/28 11:28:21;;;;;;;0.65;0.65;;;;;;;-4.46;76.13;97576.88;4910121;29;20146;-85
2022/03/28 11:31:03;;;;;;;0.70;0.70;;;;;;;-4.43;75.34;97572.09;4916702;29;20111;-85
2022/03/28 11:33:51;;;;;;;0.90;0.90;;;;;;;-4.33;75.41;97557.78;4915404;29;20055;-86
2022/03/28 11:36:21;;;;;;;0.80;0.80;;;;;;;-4.29;75.13;97548.53;4920603;29;20048;-86
2022/03/28 11:38:54;;;;;;;0.80;0.80;;;;;;;-4.16;75.30;97528.41;4903039;29;20146;-85
2022/03/28 11:41:28;;;;;;;0.75;0.75;;;;;;;-4.02;75.31;97536.47;4901383;29;20057;-87
2022/03/28 11:43:56;;;;;;;0.50;0.50;;;;;;;-4.05;75.50;97511.31;4904108;29;20626;-85
2022/03/28 11:46:31;;;;;;;0.73;0.73;;;;;;;-3.95;75.42;97522.34;4899734;29;20055;-85
2022/03/28 11:49:01;;;;;;;0.75;0.75;;;;;;;-4.12;74.85;97505.16;4916931;29;20059;-85
2022/03/28 11:51:36;;;;;;;0.98;0.98;;;;;;;-4.12;74.66;97505.16;4917974;29;20408;-85
2022/03/28 11:54:05;;;;;;;;;;;;;;;-4.15;76.12;97479.19;4918971;29;20063;-85
2022/03/28 11:59:27;;;;;;;0.73;0.73;;;;;;;-3.73;76.33;97449.31;4940013;29;20058;-85
2022/03/28 12:02:03;;;;;;;0.80;0.80;;;;;;;-3.55;75.31;97427.72;4970929;28;20047;-84
2022/03/28 12:04:31;;;;;;;0.70;0.70;;;;;;;-3.38;74.92;97441.44;4944593;29;20093;-85
2022/03/28 12:06:59;;;;;;;0.85;0.85;;;;;;;-3.31;73.75;97420.38;4934102;29;20086;-85
2022/03/28 12:09:26;;;;;;;0.70;0.70;;;;;;;-3.21;73.32;97414.75;4924400;29;20507;-83
2022/03/28 12:11:55;;;;;;;0.77;0.77;;;;;;;-3.31;73.57;97417.75;4936495;29;20060;-84
2022/03/28 12:14:23;;;;;;;0.50;0.50;;;;;;;-3.31;73.57;97386.06;4931172;29;20152;-86
2022/03/28 12:16:58;;;;;;;0.80;0.80;;;;;;;-3.08;73.45;97391.06;4935176;29;20047;-85
2022/03/28 12:19:26;;;;;;;;;;;;;;;-3.06;72.69;97363.44;4931923;29;20035;-86
2022/03/28 12:21:55;;;;;;;0.70;0.70;;;;;;;-3.23;72.39;97356.88;4973620;28;20488;-86
2022/03/28 12:24:28;;;;;;;0.65;0.65;;;;;;;-3.32;73.13;97340.41;4931985;29;20052;-86